sensor_id;sensor_type;location;lat;lon;timestamp;P1;durP1;ratioP1;P2;durP2;ratioP2
38843;SDS011;24596;48.080;8.362;2022-08-19T00:01:29;41.05;;;29.35;;
38843;SDS011;24596;48.080;8.362;2022-08-19T00:03:59;36.72;;;28.35;;
38843;SDS011;24596;48.080;8.362;2022-08-19T00:06:25;41.38;;;27.60;;
38843;SDS011;24596;48.080;8.362;2022-08-19T00:08:50;37.90;;;29.02;;
38843;SDS011;24596;48.080;8.362;2022-08-19T00:11:16;33.97;;;26.00;;
38843;SDS011;24596;48.080;8.362;2022-08-19T00:13:41;35.47;;;26.48;;
38843;SDS011;24596;48.080;8.362;2022-08-19T00:16:06;35.05;;;27.15;;
38843;SDS011;24596;48.080;8.362;2022-08-19T00:18:32;35.85;;;26.08;;
38843;SDS011;24596;48.080;8.362;2022-08-19T00:20:58;35.05;;;26.42;;
38843;SDS011;24596;48.080;8.362;2022-08-19T00:23:27;36.20;;;26.15;;
38843;SDS011;24596;48.080;8.362;2022-08-19T00:25:52;37.65;;;27.27;;
38843;SDS011;24596;48.080;8.362;2022-08-19T00:28:18;34.40;;;26.08;;
38843;SDS011;24596;48.080;8.362;2022-08-19T00:30:43;37.50;;;27.00;;
38843;SDS011;24596;48.080;8.362;2022-08-19T00:33:08;38.53;;;26.88;;
38843;SDS011;24596;48.080;8.362;2022-08-19T00:35:34;40.50;;;30.33;;
38843;SDS011;24596;48.080;8.362;2022-08-19T00:37:59;39.15;;;29.73;;
38843;SDS011;24596;48.080;8.362;2022-08-19T00:40:24;36.67;;;28.77;;
38843;SDS011;24596;48.080;8.362;2022-08-19T00:42:50;40.13;;;32.13;;
38843;SDS011;24596;48.080;8.362;2022-08-19T00:45:24;43.38;;;31.27;;
38843;SDS011;24596;48.080;8.362;2022-08-19T00:47:49;44.17;;;32.95;;
38843;SDS011;24596;48.080;8.362;2022-08-19T00:50:15;44.78;;;31.50;;
38843;SDS011;24596;48.080;8.362;2022-08-19T00:52:42;42.38;;;32.65;;
38843;SDS011;24596;48.080;8.362;2022-08-19T00:55:18;43.97;;;31.77;;
38843;SDS011;24596;48.080;8.362;2022-08-19T00:57:46;42.33;;;31.63;;
38843;SDS011;24596;48.080;8.362;2022-08-19T01:00:14;49.75;;;33.40;;
38843;SDS011;24596;48.080;8.362;2022-08-19T01:02:40;44.65;;;32.53;;
38843;SDS011;24596;48.080;8.362;2022-08-19T01:05:06;44.50;;;32.42;;
38843;SDS011;24596;48.080;8.362;2022-08-19T01:07:33;50.20;;;33.50;;
38843;SDS011;24596;48.080;8.362;2022-08-19T01:09:59;47.95;;;32.53;;
38843;SDS011;24596;48.080;8.362;2022-08-19T01:12:24;42.50;;;31.35;;
38843;SDS011;24596;48.080;8.362;2022-08-19T01:14:50;44.08;;;33.25;;
38843;SDS011;24596;48.080;8.362;2022-08-19T01:17:16;46.72;;;32.95;;
38843;SDS011;24596;48.080;8.362;2022-08-19T01:19:42;40.63;;;29.42;;
38843;SDS011;24596;48.080;8.362;2022-08-19T01:24:39;43.45;;;31.65;;
38843;SDS011;24596;48.080;8.362;2022-08-19T01:27:05;40.58;;;31.60;;
38843;SDS011;24596;48.080;8.362;2022-08-19T01:29:30;40.70;;;31.27;;
38843;SDS011;24596;48.080;8.362;2022-08-19T01:31:55;38.25;;;29.17;;
38843;SDS011;24596;48.080;8.362;2022-08-19T01:34:21;43.35;;;31.88;;
38843;SDS011;24596;48.080;8.362;2022-08-19T01:36:46;48.03;;;31.92;;
38843;SDS011;24596;48.080;8.362;2022-08-19T01:39:14;43.03;;;30.35;;
38843;SDS011;24596;48.080;8.362;2022-08-19T01:41:43;46.28;;;33.28;;
38843;SDS011;24596;48.080;8.362;2022-08-19T01:44:09;44.65;;;31.65;;
38843;SDS011;24596;48.080;8.362;2022-08-19T01:46:34;42.30;;;30.80;;
38843;SDS011;24596;48.080;8.362;2022-08-19T01:49:00;42.92;;;30.98;;
38843;SDS011;24596;48.080;8.362;2022-08-19T01:51:26;42.97;;;30.73;;
38843;SDS011;24596;48.080;8.362;2022-08-19T01:53:51;42.72;;;31.05;;
38843;SDS011;24596;48.080;8.362;2022-08-19T01:56:17;43.95;;;31.80;;
38843;SDS011;24596;48.080;8.362;2022-08-19T01:58:56;43.35;;;31.98;;
38843;SDS011;24596;48.080;8.362;2022-08-19T02:01:22;46.88;;;32.22;;
38843;SDS011;24596;48.080;8.362;2022-08-19T02:03:47;44.90;;;30.98;;
38843;SDS011;24596;48.080;8.362;2022-08-19T02:06:13;43.80;;;31.80;;
38843;SDS011;24596;48.080;8.362;2022-08-19T02:08:39;45.92;;;32.40;;
38843;SDS011;24596;48.080;8.362;2022-08-19T02:11:04;42.33;;;31.75;;
38843;SDS011;24596;48.080;8.362;2022-08-19T02:13:30;39.15;;;29.25;;
38843;SDS011;24596;48.080;8.362;2022-08-19T02:15:56;47.13;;;33.22;;
38843;SDS011;24596;48.080;8.362;2022-08-19T02:18:22;45.60;;;33.63;;
38843;SDS011;24596;48.080;8.362;2022-08-19T02:20:47;45.05;;;33.17;;
38843;SDS011;24596;48.080;8.362;2022-08-19T02:23:13;44.80;;;31.80;;
38843;SDS011;24596;48.080;8.362;2022-08-19T02:25:38;45.83;;;30.92;;
38843;SDS011;24596;48.080;8.362;2022-08-19T02:28:04;45.78;;;32.83;;
38843;SDS011;24596;48.080;8.362;2022-08-19T02:30:29;44.97;;;32.55;;
38843;SDS011;24596;48.080;8.362;2022-08-19T02:32:55;46.03;;;33.35;;
38843;SDS011;24596;48.080;8.362;2022-08-19T02:35:20;46.50;;;32.15;;
38843;SDS011;24596;48.080;8.362;2022-08-19T02:37:45;49.42;;;32.25;;
38843;SDS011;24596;48.080;8.362;2022-08-19T02:40:30;45.30;;;33.30;;
38843;SDS011;24596;48.080;8.362;2022-08-19T02:42:58;49.00;;;32.22;;
38843;SDS011;24596;48.080;8.362;2022-08-19T02:45:23;45.95;;;32.50;;
38843;SDS011;24596;48.080;8.362;2022-08-19T02:47:49;48.03;;;33.55;;
38843;SDS011;24596;48.080;8.362;2022-08-19T02:50:14;49.28;;;34.08;;
38843;SDS011;24596;48.080;8.362;2022-08-19T02:52:39;47.65;;;34.10;;
38843;SDS011;24596;48.080;8.362;2022-08-19T02:55:05;51.90;;;37.00;;
38843;SDS011;24596;48.080;8.362;2022-08-19T02:57:30;49.55;;;35.58;;
38843;SDS011;24596;48.080;8.362;2022-08-19T02:59:59;49.50;;;33.38;;
38843;SDS011;24596;48.080;8.362;2022-08-19T03:02:24;50.63;;;33.50;;
38843;SDS011;24596;48.080;8.362;2022-08-19T03:04:50;48.28;;;34.78;;
38843;SDS011;24596;48.080;8.362;2022-08-19T03:07:16;45.42;;;33.13;;
38843;SDS011;24596;48.080;8.362;2022-08-19T03:09:41;47.95;;;34.65;;
38843;SDS011;24596;48.080;8.362;2022-08-19T03:12:07;51.08;;;35.45;;
38843;SDS011;24596;48.080;8.362;2022-08-19T03:14:33;45.22;;;32.65;;
38843;SDS011;24596;48.080;8.362;2022-08-19T03:16:59;52.65;;;35.28;;
38843;SDS011;24596;48.080;8.362;2022-08-19T03:19:24;43.28;;;32.65;;
38843;SDS011;24596;48.080;8.362;2022-08-19T03:21:49;48.95;;;34.60;;
38843;SDS011;24596;48.080;8.362;2022-08-19T03:24:15;45.92;;;33.72;;
38843;SDS011;24596;48.080;8.362;2022-08-19T03:26:41;48.25;;;34.72;;
38843;SDS011;24596;48.080;8.362;2022-08-19T03:29:07;46.78;;;33.42;;
38843;SDS011;24596;48.080;8.362;2022-08-19T03:31:33;44.45;;;33.10;;
38843;SDS011;24596;48.080;8.362;2022-08-19T03:33:59;49.72;;;34.05;;
38843;SDS011;24596;48.080;8.362;2022-08-19T03:36:25;43.25;;;31.98;;
38843;SDS011;24596;48.080;8.362;2022-08-19T03:38:54;44.15;;;31.00;;
38843;SDS011;24596;48.080;8.362;2022-08-19T03:41:22;44.45;;;32.22;;
38843;SDS011;24596;48.080;8.362;2022-08-19T03:43:47;47.38;;;34.17;;
38843;SDS011;24596;48.080;8.362;2022-08-19T03:46:14;45.17;;;32.00;;
38843;SDS011;24596;48.080;8.362;2022-08-19T03:48:40;45.95;;;32.13;;
38843;SDS011;24596;48.080;8.362;2022-08-19T03:51:06;55.22;;;36.15;;
38843;SDS011;24596;48.080;8.362;2022-08-19T03:53:32;47.00;;;33.05;;
38843;SDS011;24596;48.080;8.362;2022-08-19T03:55:58;47.90;;;34.38;;
38843;SDS011;24596;48.080;8.362;2022-08-19T03:58:25;54.05;;;36.03;;
38843;SDS011;24596;48.080;8.362;2022-08-19T04:00:50;49.83;;;33.08;;
38843;SDS011;24596;48.080;8.362;2022-08-19T04:03:15;49.72;;;32.95;;
38843;SDS011;24596;48.080;8.362;2022-08-19T04:05:43;49.85;;;34.70;;
38843;SDS011;24596;48.080;8.362;2022-08-19T04:08:08;45.70;;;33.97;;
38843;SDS011;24596;48.080;8.362;2022-08-19T04:10:37;48.28;;;32.72;;
38843;SDS011;24596;48.080;8.362;2022-08-19T04:13:05;49.78;;;33.83;;
38843;SDS011;24596;48.080;8.362;2022-08-19T04:15:32;46.85;;;32.65;;
38843;SDS011;24596;48.080;8.362;2022-08-19T04:18:03;48.00;;;32.00;;
38843;SDS011;24596;48.080;8.362;2022-08-19T04:20:31;50.95;;;33.67;;
38843;SDS011;24596;48.080;8.362;2022-08-19T04:22:56;47.85;;;32.97;;
38843;SDS011;24596;48.080;8.362;2022-08-19T04:25:21;48.10;;;33.30;;
38843;SDS011;24596;48.080;8.362;2022-08-19T04:27:47;53.97;;;35.13;;
38843;SDS011;24596;48.080;8.362;2022-08-19T04:30:43;56.83;;;34.85;;
38843;SDS011;24596;48.080;8.362;2022-08-19T04:33:09;50.85;;;35.50;;
38843;SDS011;24596;48.080;8.362;2022-08-19T04:35:42;50.13;;;34.08;;
38843;SDS011;24596;48.080;8.362;2022-08-19T04:38:08;50.83;;;35.75;;
38843;SDS011;24596;48.080;8.362;2022-08-19T04:40:34;54.40;;;33.97;;
38843;SDS011;24596;48.080;8.362;2022-08-19T04:43:17;49.55;;;33.72;;
38843;SDS011;24596;48.080;8.362;2022-08-19T04:45:43;51.85;;;35.03;;
38843;SDS011;24596;48.080;8.362;2022-08-19T04:48:09;52.63;;;35.10;;
38843;SDS011;24596;48.080;8.362;2022-08-19T04:50:35;53.65;;;35.60;;
38843;SDS011;24596;48.080;8.362;2022-08-19T04:53:00;58.00;;;35.92;;
38843;SDS011;24596;48.080;8.362;2022-08-19T04:55:25;54.78;;;34.50;;
38843;SDS011;24596;48.080;8.362;2022-08-19T04:57:50;56.00;;;37.40;;
38843;SDS011;24596;48.080;8.362;2022-08-19T05:00:16;52.40;;;35.30;;
38843;SDS011;24596;48.080;8.362;2022-08-19T05:02:41;54.53;;;35.33;;
38843;SDS011;24596;48.080;8.362;2022-08-19T05:05:07;56.75;;;35.35;;
38843;SDS011;24596;48.080;8.362;2022-08-19T05:07:32;58.92;;;37.15;;
38843;SDS011;24596;48.080;8.362;2022-08-19T05:09:58;53.47;;;35.78;;
38843;SDS011;24596;48.080;8.362;2022-08-19T05:12:23;57.50;;;35.40;;
38843;SDS011;24596;48.080;8.362;2022-08-19T05:14:49;63.15;;;36.75;;
38843;SDS011;24596;48.080;8.362;2022-08-19T05:17:14;57.35;;;37.63;;
38843;SDS011;24596;48.080;8.362;2022-08-19T05:19:40;57.15;;;36.45;;
38843;SDS011;24596;48.080;8.362;2022-08-19T05:22:24;64.72;;;38.38;;
38843;SDS011;24596;48.080;8.362;2022-08-19T05:25:04;60.35;;;37.63;;
38843;SDS011;24596;48.080;8.362;2022-08-19T05:27:30;61.67;;;38.35;;
38843;SDS011;24596;48.080;8.362;2022-08-19T05:29:55;58.50;;;36.25;;
38843;SDS011;24596;48.080;8.362;2022-08-19T05:32:21;60.63;;;35.30;;
38843;SDS011;24596;48.080;8.362;2022-08-19T05:34:48;55.78;;;34.58;;
38843;SDS011;24596;48.080;8.362;2022-08-19T05:37:13;57.53;;;34.95;;
38843;SDS011;24596;48.080;8.362;2022-08-19T05:39:39;59.00;;;34.90;;
38843;SDS011;24596;48.080;8.362;2022-08-19T05:42:06;62.75;;;35.75;;
38843;SDS011;24596;48.080;8.362;2022-08-19T05:44:32;57.63;;;35.88;;
38843;SDS011;24596;48.080;8.362;2022-08-19T05:46:58;57.38;;;34.80;;
38843;SDS011;24596;48.080;8.362;2022-08-19T05:49:24;64.63;;;36.15;;
38843;SDS011;24596;48.080;8.362;2022-08-19T05:51:50;59.60;;;35.97;;
38843;SDS011;24596;48.080;8.362;2022-08-19T05:54:16;58.65;;;34.58;;
38843;SDS011;24596;48.080;8.362;2022-08-19T05:56:41;59.65;;;36.05;;
38843;SDS011;24596;48.080;8.362;2022-08-19T05:59:07;56.50;;;36.35;;
38843;SDS011;24596;48.080;8.362;2022-08-19T06:01:36;57.28;;;36.33;;
38843;SDS011;24596;48.080;8.362;2022-08-19T06:04:02;59.53;;;36.42;;
38843;SDS011;24596;48.080;8.362;2022-08-19T06:06:27;64.57;;;36.15;;
38843;SDS011;24596;48.080;8.362;2022-08-19T06:08:53;56.30;;;35.80;;
38843;SDS011;24596;48.080;8.362;2022-08-19T06:11:22;60.63;;;38.05;;
38843;SDS011;24596;48.080;8.362;2022-08-19T06:13:49;63.42;;;36.67;;
38843;SDS011;24596;48.080;8.362;2022-08-19T06:16:16;63.78;;;38.45;;
38843;SDS011;24596;48.080;8.362;2022-08-19T06:18:45;65.85;;;37.58;;
38843;SDS011;24596;48.080;8.362;2022-08-19T06:21:11;62.65;;;38.60;;
38843;SDS011;24596;48.080;8.362;2022-08-19T06:23:36;67.38;;;37.72;;
38843;SDS011;24596;48.080;8.362;2022-08-19T06:26:01;69.00;;;38.38;;
38843;SDS011;24596;48.080;8.362;2022-08-19T06:28:26;73.55;;;38.95;;
38843;SDS011;24596;48.080;8.362;2022-08-19T06:30:51;68.32;;;36.80;;
38843;SDS011;24596;48.080;8.362;2022-08-19T06:33:17;62.38;;;37.72;;
38843;SDS011;24596;48.080;8.362;2022-08-19T06:35:42;62.70;;;35.60;;
38843;SDS011;24596;48.080;8.362;2022-08-19T06:38:07;68.47;;;39.47;;
38843;SDS011;24596;48.080;8.362;2022-08-19T06:40:34;62.60;;;37.63;;
38843;SDS011;24596;48.080;8.362;2022-08-19T06:43:00;66.65;;;39.05;;
38843;SDS011;24596;48.080;8.362;2022-08-19T06:45:27;69.93;;;37.88;;
38843;SDS011;24596;48.080;8.362;2022-08-19T06:47:52;68.57;;;40.58;;
38843;SDS011;24596;48.080;8.362;2022-08-19T06:50:20;63.97;;;39.97;;
38843;SDS011;24596;48.080;8.362;2022-08-19T06:52:46;67.07;;;38.25;;
38843;SDS011;24596;48.080;8.362;2022-08-19T06:55:12;70.80;;;38.78;;
38843;SDS011;24596;48.080;8.362;2022-08-19T06:57:37;69.40;;;39.17;;
38843;SDS011;24596;48.080;8.362;2022-08-19T07:00:04;65.22;;;39.47;;
38843;SDS011;24596;48.080;8.362;2022-08-19T07:02:29;67.95;;;40.15;;
38843;SDS011;24596;48.080;8.362;2022-08-19T07:04:55;65.07;;;39.60;;
38843;SDS011;24596;48.080;8.362;2022-08-19T07:07:23;68.65;;;41.55;;
38843;SDS011;24596;48.080;8.362;2022-08-19T07:09:49;78.68;;;42.75;;
38843;SDS011;24596;48.080;8.362;2022-08-19T07:12:14;74.35;;;42.88;;
38843;SDS011;24596;48.080;8.362;2022-08-19T07:14:40;68.85;;;42.47;;
38843;SDS011;24596;48.080;8.362;2022-08-19T07:17:07;64.13;;;40.72;;
38843;SDS011;24596;48.080;8.362;2022-08-19T07:19:33;69.97;;;41.95;;
38843;SDS011;24596;48.080;8.362;2022-08-19T07:22:00;66.30;;;40.97;;
38843;SDS011;24596;48.080;8.362;2022-08-19T07:24:26;66.20;;;42.05;;
38843;SDS011;24596;48.080;8.362;2022-08-19T07:26:53;61.55;;;38.72;;
38843;SDS011;24596;48.080;8.362;2022-08-19T07:29:19;63.47;;;39.80;;
38843;SDS011;24596;48.080;8.362;2022-08-19T07:31:45;59.92;;;37.45;;
38843;SDS011;24596;48.080;8.362;2022-08-19T07:34:11;68.07;;;40.10;;
38843;SDS011;24596;48.080;8.362;2022-08-19T07:36:39;64.70;;;39.97;;
38843;SDS011;24596;48.080;8.362;2022-08-19T07:39:07;65.13;;;38.58;;
38843;SDS011;24596;48.080;8.362;2022-08-19T07:41:34;64.25;;;39.67;;
38843;SDS011;24596;48.080;8.362;2022-08-19T07:43:59;63.92;;;39.22;;
38843;SDS011;24596;48.080;8.362;2022-08-19T07:46:30;61.65;;;39.17;;
38843;SDS011;24596;48.080;8.362;2022-08-19T07:48:56;61.85;;;38.67;;
38843;SDS011;24596;48.080;8.362;2022-08-19T07:51:21;60.45;;;38.45;;
38843;SDS011;24596;48.080;8.362;2022-08-19T07:53:47;65.47;;;38.08;;
38843;SDS011;24596;48.080;8.362;2022-08-19T07:56:14;60.00;;;38.30;;
38843;SDS011;24596;48.080;8.362;2022-08-19T07:58:40;53.28;;;34.95;;
38843;SDS011;24596;48.080;8.362;2022-08-19T08:01:07;57.50;;;38.05;;
38843;SDS011;24596;48.080;8.362;2022-08-19T08:03:33;58.95;;;36.92;;
38843;SDS011;24596;48.080;8.362;2022-08-19T08:06:17;56.67;;;35.00;;
38843;SDS011;24596;48.080;8.362;2022-08-19T08:09:01;59.33;;;38.63;;
38843;SDS011;24596;48.080;8.362;2022-08-19T08:11:36;54.63;;;36.75;;
38843;SDS011;24596;48.080;8.362;2022-08-19T08:14:02;56.15;;;36.55;;
38843;SDS011;24596;48.080;8.362;2022-08-19T08:16:28;59.78;;;37.75;;
38843;SDS011;24596;48.080;8.362;2022-08-19T08:18:56;54.90;;;35.35;;
38843;SDS011;24596;48.080;8.362;2022-08-19T08:21:21;63.05;;;39.25;;
38843;SDS011;24596;48.080;8.362;2022-08-19T08:23:46;56.03;;;38.25;;
38843;SDS011;24596;48.080;8.362;2022-08-19T08:26:12;59.55;;;35.72;;
38843;SDS011;24596;48.080;8.362;2022-08-19T08:28:39;61.80;;;37.85;;
38843;SDS011;24596;48.080;8.362;2022-08-19T08:31:04;61.55;;;39.40;;
38843;SDS011;24596;48.080;8.362;2022-08-19T08:33:30;61.42;;;38.92;;
38843;SDS011;24596;48.080;8.362;2022-08-19T08:35:55;59.28;;;38.88;;
38843;SDS011;24596;48.080;8.362;2022-08-19T08:38:21;58.05;;;38.55;;
38843;SDS011;24596;48.080;8.362;2022-08-19T08:40:47;57.95;;;38.35;;
38843;SDS011;24596;48.080;8.362;2022-08-19T08:45:44;55.78;;;38.65;;
38843;SDS011;24596;48.080;8.362;2022-08-19T08:48:18;60.17;;;38.95;;
38843;SDS011;24596;48.080;8.362;2022-08-19T08:50:46;58.35;;;38.33;;
38843;SDS011;24596;48.080;8.362;2022-08-19T08:53:13;55.92;;;40.25;;
38843;SDS011;24596;48.080;8.362;2022-08-19T08:55:40;54.33;;;36.72;;
38843;SDS011;24596;48.080;8.362;2022-08-19T08:58:28;56.33;;;38.92;;
38843;SDS011;24596;48.080;8.362;2022-08-19T09:00:51;57.70;;;39.63;;
38843;SDS011;24596;48.080;8.362;2022-08-19T09:08:16;55.47;;;37.85;;
38843;SDS011;24596;48.080;8.362;2022-08-19T09:15:41;58.47;;;39.20;;
38843;SDS011;24596;48.080;8.362;2022-08-19T09:18:09;54.50;;;38.25;;
38843;SDS011;24596;48.080;8.362;2022-08-19T09:20:35;56.95;;;38.00;;
38843;SDS011;24596;48.080;8.362;2022-08-19T09:23:00;58.88;;;40.33;;
38843;SDS011;24596;48.080;8.362;2022-08-19T09:25:25;57.05;;;39.35;;
38843;SDS011;24596;48.080;8.362;2022-08-19T09:27:51;57.38;;;37.97;;
38843;SDS011;24596;48.080;8.362;2022-08-19T09:30:28;59.88;;;39.53;;
38843;SDS011;24596;48.080;8.362;2022-08-19T09:32:54;62.13;;;42.47;;
38843;SDS011;24596;48.080;8.362;2022-08-19T09:35:20;63.47;;;41.42;;
38843;SDS011;24596;48.080;8.362;2022-08-19T09:37:47;64.65;;;41.72;;
38843;SDS011;24596;48.080;8.362;2022-08-19T09:40:12;55.88;;;39.22;;
38843;SDS011;24596;48.080;8.362;2022-08-19T09:42:37;55.70;;;39.40;;
38843;SDS011;24596;48.080;8.362;2022-08-19T09:45:03;58.95;;;40.03;;
38843;SDS011;24596;48.080;8.362;2022-08-19T09:47:29;54.55;;;37.40;;
38843;SDS011;24596;48.080;8.362;2022-08-19T09:49:54;59.83;;;39.20;;
38843;SDS011;24596;48.080;8.362;2022-08-19T09:52:20;57.83;;;39.72;;
38843;SDS011;24596;48.080;8.362;2022-08-19T09:54:45;56.40;;;40.28;;
38843;SDS011;24596;48.080;8.362;2022-08-19T09:57:10;57.00;;;40.17;;
38843;SDS011;24596;48.080;8.362;2022-08-19T09:59:36;55.45;;;37.28;;
38843;SDS011;24596;48.080;8.362;2022-08-19T10:02:01;56.30;;;39.90;;
38843;SDS011;24596;48.080;8.362;2022-08-19T10:04:26;57.20;;;41.55;;
38843;SDS011;24596;48.080;8.362;2022-08-19T10:07:10;56.35;;;38.50;;
38843;SDS011;24596;48.080;8.362;2022-08-19T10:09:36;56.45;;;39.78;;
38843;SDS011;24596;48.080;8.362;2022-08-19T10:12:04;51.92;;;37.97;;
38843;SDS011;24596;48.080;8.362;2022-08-19T10:14:29;55.80;;;39.40;;
38843;SDS011;24596;48.080;8.362;2022-08-19T10:16:55;55.05;;;39.05;;
38843;SDS011;24596;48.080;8.362;2022-08-19T10:19:21;55.53;;;39.97;;
38843;SDS011;24596;48.080;8.362;2022-08-19T10:21:46;53.53;;;38.80;;
38843;SDS011;24596;48.080;8.362;2022-08-19T10:24:12;56.03;;;38.53;;
38843;SDS011;24596;48.080;8.362;2022-08-19T10:26:38;53.17;;;38.20;;
38843;SDS011;24596;48.080;8.362;2022-08-19T10:29:06;54.42;;;37.70;;
38843;SDS011;24596;48.080;8.362;2022-08-19T10:31:33;51.63;;;35.53;;
38843;SDS011;24596;48.080;8.362;2022-08-19T10:33:59;52.08;;;37.80;;
38843;SDS011;24596;48.080;8.362;2022-08-19T10:36:29;51.55;;;35.78;;
38843;SDS011;24596;48.080;8.362;2022-08-19T10:38:55;53.03;;;38.47;;
38843;SDS011;24596;48.080;8.362;2022-08-19T10:41:25;49.13;;;35.70;;
38843;SDS011;24596;48.080;8.362;2022-08-19T10:43:51;51.08;;;36.95;;
38843;SDS011;24596;48.080;8.362;2022-08-19T10:46:19;50.65;;;36.63;;
38843;SDS011;24596;48.080;8.362;2022-08-19T10:48:45;45.50;;;35.13;;
38843;SDS011;24596;48.080;8.362;2022-08-19T10:51:10;47.15;;;35.53;;
38843;SDS011;24596;48.080;8.362;2022-08-19T10:53:54;46.58;;;35.47;;
38843;SDS011;24596;48.080;8.362;2022-08-19T10:56:20;45.60;;;34.53;;
38843;SDS011;24596;48.080;8.362;2022-08-19T10:59:04;44.90;;;33.83;;
38843;SDS011;24596;48.080;8.362;2022-08-19T11:01:30;41.88;;;33.55;;
38843;SDS011;24596;48.080;8.362;2022-08-19T11:03:58;46.92;;;33.55;;
38843;SDS011;24596;48.080;8.362;2022-08-19T11:06:24;45.20;;;33.55;;
38843;SDS011;24596;48.080;8.362;2022-08-19T11:08:50;41.47;;;32.88;;
38843;SDS011;24596;48.080;8.362;2022-08-19T11:11:16;46.00;;;33.22;;
38843;SDS011;24596;48.080;8.362;2022-08-19T11:13:41;40.30;;;30.85;;
38843;SDS011;24596;48.080;8.362;2022-08-19T11:16:12;40.33;;;31.73;;
38843;SDS011;24596;48.080;8.362;2022-08-19T11:18:40;45.03;;;32.87;;
38843;SDS011;24596;48.080;8.362;2022-08-19T11:21:07;40.00;;;31.20;;
38843;SDS011;24596;48.080;8.362;2022-08-19T11:23:32;39.53;;;30.13;;
38843;SDS011;24596;48.080;8.362;2022-08-19T11:25:57;40.23;;;31.27;;
38843;SDS011;24596;48.080;8.362;2022-08-19T11:28:24;32.40;;;28.48;;
38843;SDS011;24596;48.080;8.362;2022-08-19T11:30:49;34.67;;;29.00;;
38843;SDS011;24596;48.080;8.362;2022-08-19T11:33:14;34.80;;;28.93;;
38843;SDS011;24596;48.080;8.362;2022-08-19T11:35:40;39.60;;;29.35;;
38843;SDS011;24596;48.080;8.362;2022-08-19T11:38:06;38.05;;;29.00;;
38843;SDS011;24596;48.080;8.362;2022-08-19T11:40:31;33.72;;;28.05;;
38843;SDS011;24596;48.080;8.362;2022-08-19T11:42:58;36.15;;;29.30;;
38843;SDS011;24596;48.080;8.362;2022-08-19T11:45:24;38.60;;;31.70;;
38843;SDS011;24596;48.080;8.362;2022-08-19T11:47:49;34.03;;;27.50;;
38843;SDS011;24596;48.080;8.362;2022-08-19T11:50:15;34.13;;;28.67;;
38843;SDS011;24596;48.080;8.362;2022-08-19T11:52:41;33.90;;;27.00;;
38843;SDS011;24596;48.080;8.362;2022-08-19T11:55:07;34.88;;;28.90;;
38843;SDS011;24596;48.080;8.362;2022-08-19T11:57:33;35.42;;;27.73;;
38843;SDS011;24596;48.080;8.362;2022-08-19T11:59:58;35.88;;;28.95;;
38843;SDS011;24596;48.080;8.362;2022-08-19T12:02:23;34.60;;;26.70;;
38843;SDS011;24596;48.080;8.362;2022-08-19T12:04:48;31.98;;;26.65;;
38843;SDS011;24596;48.080;8.362;2022-08-19T12:07:14;31.60;;;25.95;;
38843;SDS011;24596;48.080;8.362;2022-08-19T12:09:39;29.60;;;23.48;;
38843;SDS011;24596;48.080;8.362;2022-08-19T12:12:04;31.23;;;25.70;;
38843;SDS011;24596;48.080;8.362;2022-08-19T12:14:30;29.92;;;24.13;;
38843;SDS011;24596;48.080;8.362;2022-08-19T12:16:56;30.13;;;26.45;;
38843;SDS011;24596;48.080;8.362;2022-08-19T12:19:22;32.88;;;25.20;;
38843;SDS011;24596;48.080;8.362;2022-08-19T12:21:47;34.85;;;26.75;;
38843;SDS011;24596;48.080;8.362;2022-08-19T12:24:13;29.75;;;25.25;;
38843;SDS011;24596;48.080;8.362;2022-08-19T12:26:38;31.70;;;24.55;;
38843;SDS011;24596;48.080;8.362;2022-08-19T12:29:03;30.25;;;26.40;;
38843;SDS011;24596;48.080;8.362;2022-08-19T12:31:29;32.95;;;26.60;;
38843;SDS011;24596;48.080;8.362;2022-08-19T12:33:54;34.67;;;29.23;;
38843;SDS011;24596;48.080;8.362;2022-08-19T12:36:19;33.88;;;27.23;;
38843;SDS011;24596;48.080;8.362;2022-08-19T12:38:46;30.35;;;26.02;;
38843;SDS011;24596;48.080;8.362;2022-08-19T12:41:13;33.05;;;27.48;;
38843;SDS011;24596;48.080;8.362;2022-08-19T12:43:39;34.33;;;28.23;;
38843;SDS011;24596;48.080;8.362;2022-08-19T12:46:04;34.55;;;27.08;;
38843;SDS011;24596;48.080;8.362;2022-08-19T12:48:30;32.47;;;28.58;;
38843;SDS011;24596;48.080;8.362;2022-08-19T12:50:55;32.38;;;27.80;;
38843;SDS011;24596;48.080;8.362;2022-08-19T12:53:21;32.72;;;27.90;;
38843;SDS011;24596;48.080;8.362;2022-08-19T12:55:46;32.88;;;28.88;;
38843;SDS011;24596;48.080;8.362;2022-08-19T12:58:12;36.67;;;27.75;;
38843;SDS011;24596;48.080;8.362;2022-08-19T13:00:37;32.67;;;25.48;;
38843;SDS011;24596;48.080;8.362;2022-08-19T13:03:03;30.73;;;26.42;;
38843;SDS011;24596;48.080;8.362;2022-08-19T13:05:30;31.58;;;26.33;;
38843;SDS011;24596;48.080;8.362;2022-08-19T13:07:57;31.77;;;25.90;;
38843;SDS011;24596;48.080;8.362;2022-08-19T13:10:23;32.28;;;25.83;;
38843;SDS011;24596;48.080;8.362;2022-08-19T13:12:50;33.30;;;26.52;;
38843;SDS011;24596;48.080;8.362;2022-08-19T13:15:16;31.70;;;26.13;;
38843;SDS011;24596;48.080;8.362;2022-08-19T13:17:44;31.48;;;26.27;;
38843;SDS011;24596;48.080;8.362;2022-08-19T13:20:10;30.42;;;24.42;;
38843;SDS011;24596;48.080;8.362;2022-08-19T13:22:35;28.92;;;24.17;;
38843;SDS011;24596;48.080;8.362;2022-08-19T13:25:02;29.23;;;25.15;;
38843;SDS011;24596;48.080;8.362;2022-08-19T13:27:27;28.50;;;23.70;;
38843;SDS011;24596;48.080;8.362;2022-08-19T13:29:52;27.33;;;22.92;;
38843;SDS011;24596;48.080;8.362;2022-08-19T13:32:36;25.40;;;22.23;;
38843;SDS011;24596;48.080;8.362;2022-08-19T13:35:20;23.35;;;19.92;;
38843;SDS011;24596;48.080;8.362;2022-08-19T13:37:45;25.65;;;21.13;;
38843;SDS011;24596;48.080;8.362;2022-08-19T13:42:41;27.08;;;22.38;;
38843;SDS011;24596;48.080;8.362;2022-08-19T13:45:07;27.13;;;20.95;;
38843;SDS011;24596;48.080;8.362;2022-08-19T13:47:33;25.55;;;19.75;;
38843;SDS011;24596;48.080;8.362;2022-08-19T13:49:59;23.30;;;19.63;;
38843;SDS011;24596;48.080;8.362;2022-08-19T13:52:24;25.73;;;19.08;;
38843;SDS011;24596;48.080;8.362;2022-08-19T13:54:50;24.40;;;18.45;;
38843;SDS011;24596;48.080;8.362;2022-08-19T13:57:15;26.20;;;18.95;;
38843;SDS011;24596;48.080;8.362;2022-08-19T13:59:40;22.25;;;16.67;;
38843;SDS011;24596;48.080;8.362;2022-08-19T14:02:05;20.00;;;16.83;;
38843;SDS011;24596;48.080;8.362;2022-08-19T14:04:31;18.40;;;15.63;;
38843;SDS011;24596;48.080;8.362;2022-08-19T14:06:56;21.73;;;17.85;;
38843;SDS011;24596;48.080;8.362;2022-08-19T14:09:21;18.63;;;16.10;;
38843;SDS011;24596;48.080;8.362;2022-08-19T14:11:47;18.15;;;15.98;;
38843;SDS011;24596;48.080;8.362;2022-08-19T14:14:12;22.05;;;16.02;;
38843;SDS011;24596;48.080;8.362;2022-08-19T14:16:37;19.17;;;15.70;;
38843;SDS011;24596;48.080;8.362;2022-08-19T14:19:02;16.83;;;14.13;;
38843;SDS011;24596;48.080;8.362;2022-08-19T14:21:28;20.40;;;14.85;;
38843;SDS011;24596;48.080;8.362;2022-08-19T14:23:55;19.08;;;14.95;;
38843;SDS011;24596;48.080;8.362;2022-08-19T14:26:21;17.23;;;13.68;;
38843;SDS011;24596;48.080;8.362;2022-08-19T14:28:46;16.73;;;14.20;;
38843;SDS011;24596;48.080;8.362;2022-08-19T14:31:13;20.10;;;15.30;;
38843;SDS011;24596;48.080;8.362;2022-08-19T14:33:41;17.50;;;14.75;;
38843;SDS011;24596;48.080;8.362;2022-08-19T14:36:07;17.95;;;14.80;;